Time;durP1;ratioP1;P1;durP2;ratioP2;P2;SDS_P1;SDS_P2;PMS_P1;PMS_P2;Temp;Humidity;BMP_temperature;BMP_pressure;BME280_temperature;BME280_humidity;BME280_pressure;Samples;Min_cycle;Max_cycle;Signal;HPM_P1;HPM_P2
2021/12/07 00:02:21;;;;;;;25.38;18.52;;;3.70;99.90;;;;;;5013880;28;20561;-52
2021/12/07 00:04:48;;;;;;;29.83;20.65;;;3.70;99.90;;;;;;5014252;28;20618;-52
2021/12/07 00:07:17;;;;;;;30.88;20.45;;;3.50;99.90;;;;;;5014048;28;20224;-51
2021/12/07 00:09:49;;;;;;;34.13;22.30;;;3.50;99.90;;;;;;5013680;28;20228;-52
2021/12/07 00:12:19;;;;;;;31.20;22.48;;;3.50;99.90;;;;;;5013614;28;20240;-52
2021/12/07 00:14:47;;;;;;;31.67;22.42;;;3.70;99.90;;;;;;5015556;28;20200;-50
2021/12/07 00:17:15;;;;;;;27.80;19.40;;;3.70;99.90;;;;;;5014899;28;20585;-50
2021/12/07 00:19:42;;;;;;;29.13;20.45;;;3.50;99.90;;;;;;5014676;28;20236;-49
2021/12/07 00:22:10;;;;;;;32.97;21.88;;;3.50;99.90;;;;;;5012679;28;20213;-50
2021/12/07 00:24:37;;;;;;;30.90;20.90;;;3.30;99.90;;;;;;5013560;28;20711;-50
2021/12/07 00:27:04;;;;;;;29.13;20.95;;;3.60;99.90;;;;;;5013521;28;20197;-50
2021/12/07 00:29:31;;;;;;;33.00;20.40;;;3.40;99.90;;;;;;5011596;28;20228;-50
2021/12/07 00:32:16;;;;;;;33.08;20.77;;;3.30;99.90;;;;;;5012151;28;20248;-49
2021/12/07 00:34:58;;;;;;;27.92;18.88;;;3.50;99.90;;;;;;5011876;28;20300;-50
2021/12/07 00:37:29;;;;;;;30.25;19.73;;;3.10;99.90;;;;;;5011851;28;20229;-50
2021/12/07 00:39:56;;;;;;;28.15;19.25;;;3.40;99.90;;;;;;5011430;28;20310;-50
2021/12/07 00:42:23;;;;;;;29.30;20.70;;;3.30;99.90;;;;;;5013207;28;20568;-49
2021/12/07 00:44:51;;;;;;;30.85;20.48;;;3.30;99.90;;;;;;5011556;28;20202;-50
2021/12/07 00:47:21;;;;;;;28.42;18.90;;;3.10;99.90;;;;;;5012062;28;20197;-50
2021/12/07 00:49:48;;;;;;;26.90;20.52;;;3.10;99.90;;;;;;5012280;28;20317;-50
2021/12/07 00:52:15;;;;;;;29.05;18.77;;;3.00;99.90;;;;;;5011731;28;20206;-50
2021/12/07 00:54:42;;;;;;;26.13;17.80;;;3.10;99.90;;;;;;5011562;28;20225;-50
2021/12/07 00:57:09;;;;;;;23.80;17.02;;;2.80;99.90;;;;;;5011575;28;20697;-50
2021/12/07 00:59:36;;;;;;;22.80;16.95;;;2.90;99.90;;;;;;5010870;28;20280;-50
2021/12/07 01:02:04;;;;;;;26.02;17.48;;;2.80;99.90;;;;;;5011471;28;20759;-49
2021/12/07 01:04:32;;;;;;;26.63;16.83;;;2.60;99.90;;;;;;5012342;28;20736;-50
2021/12/07 01:07:05;;;;;;;26.95;17.13;;;2.20;99.90;;;;;;5011603;28;20201;-49
2021/12/07 01:09:39;;;;;;;24.05;15.88;;;2.80;99.90;;;;;;5010730;28;20320;-50
2021/12/07 01:25:57;;;;;;;26.45;18.45;;;;;;;;;;5012941;28;20204;-50
2021/12/07 01:28:31;;;;;;;25.70;18.05;;;2.30;99.90;;;;;;5011753;28;20626;-50
2021/12/07 01:31:06;;;;;;;29.70;19.23;;;2.90;99.90;;;;;;5011067;28;20221;-50
2021/12/07 01:33:54;;;;;;;26.10;17.23;;;2.90;99.90;;;;;;5010883;28;20568;-50
2021/12/07 01:36:42;;;;;;;24.75;16.20;;;2.60;99.90;;;;;;5011048;28;20221;-49
2021/12/07 01:39:52;;;;;;;26.38;16.30;;;2.90;99.90;;;;;;5010374;28;20197;-52
2021/12/07 01:45:36;;;;;;;25.63;18.40;;;2.80;99.90;;;;;;5011963;28;20182;-49
2021/12/07 01:49:35;;;;;;;30.00;18.25;;;2.60;99.90;;;;;;5010460;28;20546;-49
2021/12/07 01:51:08;;;;;;;22.48;16.60;;;2.50;99.90;;;;;;5010986;28;20732;-50
2021/12/07 02:01:52;;;;;;;23.25;17.40;;;2.50;99.90;;;;;;5010487;28;20198;-50
2021/12/07 02:04:20;;;;;;;24.63;16.90;;;;;;;;;;5010433;28;20208;-50
2021/12/07 02:06:49;;;;;;;23.80;16.65;;;2.40;99.90;;;;;;5010590;28;20284;-49
2021/12/07 02:09:18;;;;;;;22.13;16.10;;;2.30;99.90;;;;;;5009985;28;20678;-50
2021/12/07 02:11:48;;;;;;;20.70;15.13;;;;;;;;;;5010466;28;20205;-50
2021/12/07 02:14:18;;;;;;;23.13;16.27;;;2.40;99.90;;;;;;5010488;28;20220;-50
2021/12/07 02:16:49;;;;;;;23.60;17.00;;;2.50;99.90;;;;;;5013110;28;20229;-50
2021/12/07 02:19:16;;;;;;;24.02;16.90;;;2.30;99.90;;;;;;5014021;28;20689;-50
2021/12/07 02:21:45;;;;;;;25.00;16.25;;;2.30;99.90;;;;;;5014415;28;20193;-51
2021/12/07 02:24:18;;;;;;;21.70;15.75;;;2.30;99.90;;;;;;5014435;28;20204;-52
2021/12/07 02:26:47;;;;;;;23.02;15.02;;;2.30;99.90;;;;;;5014305;28;20244;-50
2021/12/07 02:29:14;;;;;;;25.08;17.75;;;2.20;99.90;;;;;;5013943;28;20551;-50
2021/12/07 02:31:42;;;;;;;22.55;15.60;;;2.30;99.90;;;;;;5014243;28;20201;-51
2021/12/07 02:34:10;;;;;;;23.83;15.60;;;2.20;99.90;;;;;;5014167;28;20251;-51
2021/12/07 02:36:41;;;;;;;23.05;15.18;;;2.30;99.90;;;;;;5014110;28;20244;-51
2021/12/07 02:39:12;;;;;;;22.73;15.00;;;2.10;99.90;;;;;;5013603;28;20670;-50
2021/12/07 02:41:41;;;;;;;23.30;15.23;;;2.10;99.90;;;;;;5014248;28;20201;-51
2021/12/07 02:44:11;;;;;;;23.05;15.18;;;2.20;99.90;;;;;;5014096;28;20205;-51
2021/12/07 02:46:39;;;;;;;22.92;16.15;;;2.20;99.90;;;;;;5014246;28;20293;-49
2021/12/07 02:49:09;;;;;;;20.65;14.00;;;2.20;99.90;;;;;;5013577;28;20216;-49
2021/12/07 02:51:36;;;;;;;21.83;15.57;;;2.00;99.90;;;;;;5013867;28;20682;-50
2021/12/07 02:54:05;;;;;;;23.08;15.20;;;2.20;99.90;;;;;;5013647;28;20259;-50
2021/12/07 02:56:34;;;;;;;26.17;16.75;;;2.30;99.90;;;;;;5013789;28;20312;-50
2021/12/07 02:59:03;;;;;;;23.10;15.60;;;2.20;99.90;;;;;;5013195;28;20200;-51
2021/12/07 03:01:35;;;;;;;27.83;15.98;;;2.10;99.90;;;;;;5013500;28;20507;-51
2021/12/07 03:04:07;;;;;;;24.75;16.13;;;;;;;;;;5013626;28;20678;-51
2021/12/07 03:06:53;;;;;;;22.58;15.75;;;2.00;99.90;;;;;;5013754;28;20209;-51
2021/12/07 03:26:22;;;;;;;27.77;16.25;;;2.00;99.90;;;;;;4960619;28;20205;-50
2021/12/07 03:28:54;;;;;;;23.88;16.35;;;1.90;99.90;;;;;;5013194;28;20700;-50
2021/12/07 03:31:25;;;;;;;26.63;17.35;;;1.90;99.90;;;;;;5013044;28;20279;-50
2021/12/07 03:33:53;;;;;;;24.23;17.08;;;1.80;99.90;;;;;;5013170;28;20205;-50
2021/12/07 03:36:22;;;;;;;27.77;18.17;;;2.20;99.90;;;;;;5012903;28;20236;-50
2021/12/07 03:38:51;;;;;;;25.15;17.42;;;2.10;99.90;;;;;;5012737;28;20201;-51
2021/12/07 03:41:19;;;;;;;27.13;18.08;;;2.10;99.90;;;;;;5012821;28;20217;-50
2021/12/07 03:43:46;;;;;;;29.48;19.25;;;2.10;99.90;;;;;;5012888;28;20210;-50
2021/12/07 03:46:17;;;;;;;24.92;17.85;;;2.20;99.90;;;;;;5012977;28;20205;-50
2021/12/07 03:48:44;;;;;;;27.67;18.42;;;2.00;99.90;;;;;;5012552;28;20198;-51
2021/12/07 03:51:11;;;;;;;26.02;16.85;;;2.10;99.90;;;;;;5012536;28;20682;-50
2021/12/07 03:53:41;;;;;;;28.15;20.00;;;;;;;;;;5012759;28;20215;-51
2021/12/07 03:56:09;;;;;;;27.90;17.75;;;2.10;99.90;;;;;;5012555;28;20212;-50
2021/12/07 03:58:39;;;;;;;26.23;19.10;;;2.20;99.90;;;;;;5013753;28;20324;-50
2021/12/07 04:01:10;;;;;;;26.63;18.88;;;2.20;99.90;;;;;;5012587;28;20228;-50
2021/12/07 04:03:41;;;;;;;31.70;19.67;;;2.00;99.90;;;;;;5012588;28;20237;-50
2021/12/07 04:06:09;;;;;;;28.30;18.85;;;2.40;99.90;;;;;;5012643;28;20669;-50
2021/12/07 04:08:41;;;;;;;30.08;19.35;;;2.20;99.90;;;;;;5012178;28;20641;-50
2021/12/07 04:11:13;;;;;;;28.60;20.40;;;2.10;99.90;;;;;;5012321;28;20224;-51
2021/12/07 04:13:43;;;;;;;27.77;19.42;;;2.40;99.90;;;;;;5012495;28;20465;-49
2021/12/07 04:16:14;;;;;;;33.83;19.35;;;2.30;99.90;;;;;;5012239;28;20221;-50
2021/12/07 04:18:45;;;;;;;34.30;21.38;;;2.40;99.90;;;;;;5011917;28;20279;-50
2021/12/07 04:21:13;;;;;;;30.33;20.77;;;2.10;99.90;;;;;;5012148;28;20694;-51
2021/12/07 04:23:40;;;;;;;27.38;18.90;;;2.40;99.90;;;;;;5012165;28;20212;-51
2021/12/07 04:26:10;;;;;;;29.98;21.15;;;2.20;99.90;;;;;;5012046;28;20209;-52
2021/12/07 04:28:37;;;;;;;30.33;19.77;;;2.40;99.90;;;;;;5011755;28;20205;-51
2021/12/07 04:31:05;;;;;;;26.92;19.80;;;2.20;99.90;;;;;;5013270;28;20327;-52
2021/12/07 04:33:32;;;;;;;27.75;20.35;;;;;;;;;;5013394;28;20662;-50
2021/12/07 04:36:01;;;;;;;30.88;20.02;;;2.50;99.90;;;;;;5011855;28;20229;-51
2021/12/07 04:38:28;;;;;;;28.88;19.85;;;2.40;99.90;;;;;;5012162;28;20690;-51
2021/12/07 04:40:55;;;;;;;28.40;20.00;;;2.40;99.90;;;;;;5011965;28;20324;-51
2021/12/07 04:43:22;;;;;;;28.75;20.77;;;2.10;99.90;;;;;;5012214;28;20205;-51
2021/12/07 04:45:58;;;;;;;30.92;20.25;;;2.20;99.90;;;;;;5011984;28;20513;-51
2021/12/07 04:59:25;;;;;;;30.27;20.55;;;2.00;99.90;;;;;;5012539;28;20193;-50
2021/12/07 05:01:52;;;;;;;33.55;23.23;;;;;;;;;;5011367;28;20204;-51
2021/12/07 05:04:24;;;;;;;31.30;21.70;;;2.20;99.90;;;;;;5011707;28;20197;-50
2021/12/07 05:06:57;;;;;;;32.42;23.08;;;2.30;99.90;;;;;;5011368;28;20201;-51
2021/12/07 05:09:53;;;;;;;31.35;21.17;;;2.20;99.90;;;;;;5010932;28;20224;-51
2021/12/07 05:12:30;;;;;;;30.05;20.33;;;2.10;99.90;;;;;;5012637;28;20193;-51
2021/12/07 05:15:04;;;;;;;38.05;24.23;;;2.30;99.90;;;;;;5011216;28;20257;-50
2021/12/07 05:18:00;;;;;;;28.15;20.23;;;2.40;99.90;;;;;;5012284;28;20294;-51
2021/12/07 05:34:45;;;;;;;34.60;21.73;;;2.30;99.90;;;;;;5010691;28;20606;-51
2021/12/07 05:39:59;;;;;;;37.88;23.42;;;2.20;99.90;;;;;;5011691;28;20602;-51
2021/12/07 05:42:26;;;;;;;33.72;23.23;;;2.20;99.90;;;;;;5012062;28;20630;-51
2021/12/07 05:44:54;;;;;;;34.08;22.95;;;2.20;99.90;;;;;;5011866;28;20200;-51
2021/12/07 05:47:21;;;;;;;33.20;22.75;;;2.20;99.90;;;;;;5010519;28;20225;-51
2021/12/07 05:49:48;;;;;;;36.42;23.23;;;1.90;99.90;;;;;;5011031;28;20250;-51
2021/12/07 05:52:15;;;;;;;33.22;24.23;;;2.20;99.90;;;;;;5011557;28;20204;-51
2021/12/07 05:54:42;;;;;;;38.85;24.75;;;2.20;99.90;;;;;;5010634;28;20208;-51
2021/12/07 05:57:11;;;;;;;34.22;23.70;;;2.00;99.90;;;;;;5011565;28;20269;-51
2021/12/07 05:59:37;;;;;;;36.88;23.73;;;2.10;99.90;;;;;;5011434;28;20279;-52
2021/12/07 06:02:05;;;;;;;42.65;25.75;;;2.00;99.90;;;;;;5011775;28;20626;-51
2021/12/07 06:04:32;;;;;;;36.10;23.00;;;1.80;99.90;;;;;;5011584;28;20197;-50
2021/12/07 06:06:59;;;;;;;37.15;25.00;;;1.80;99.90;;;;;;5010111;28;20263;-52
2021/12/07 06:09:26;;;;;;;43.03;26.10;;;;;;;;;;5009877;28;20569;-50
2021/12/07 06:11:55;;;;;;;38.40;24.58;;;1.90;99.90;;;;;;5011379;28;20293;-52
2021/12/07 06:14:30;;;;;;;42.78;24.80;;;1.70;99.90;;;;;;5009971;28;20308;-53
2021/12/07 06:16:56;;;;;;;35.13;24.95;;;1.70;99.90;;;;;;5011355;28;20201;-52
2021/12/07 06:19:23;;;;;;;37.05;23.85;;;1.60;99.90;;;;;;5009617;28;20296;-52
2021/12/07 06:21:53;;;;;;;41.95;25.70;;;1.70;99.90;;;;;;5011544;28;20239;-51
2021/12/07 06:24:20;;;;;;;41.97;26.70;;;1.50;99.90;;;;;;5009922;28;20292;-50
2021/12/07 06:26:47;;;;;;;41.45;25.38;;;1.70;99.90;;;;;;5011191;28;20229;-52
2021/12/07 06:29:14;;;;;;;37.63;24.38;;;;;;;;;;5010377;28;20197;-51
2021/12/07 06:31:42;;;;;;;33.95;23.17;;;1.60;99.90;;;;;;5009506;28;20232;-51
2021/12/07 06:34:10;;;;;;;39.53;26.60;;;;;;;;;;5010345;28;20201;-50
2021/12/07 06:36:40;;;;;;;38.25;24.48;;;1.70;99.90;;;;;;5010069;28;20193;-50
2021/12/07 06:39:09;;;;;;;43.42;26.50;;;1.80;99.90;;;;;;5010362;28;20307;-50
2021/12/07 06:41:36;;;;;;;33.80;24.02;;;1.50;99.90;;;;;;5009769;28;20207;-50
2021/12/07 06:44:04;;;;;;;42.35;26.20;;;1.40;99.90;;;;;;5009708;28;20372;-49
2021/12/07 06:46:31;;;;;;;41.05;27.20;;;1.60;99.90;;;;;;5010503;28;20255;-53
2021/12/07 06:48:59;;;;;;;39.65;25.23;;;1.70;99.90;;;;;;5008437;28;20653;-51
2021/12/07 06:51:26;;;;;;;35.58;24.13;;;1.40;99.90;;;;;;5010622;28;20244;-50
2021/12/07 06:53:52;;;;;;;38.72;24.88;;;1.40;99.90;;;;;;5011373;28;20685;-51
2021/12/07 06:56:19;;;;;;;38.20;25.55;;;1.70;99.90;;;;;;5010659;28;20197;-50
2021/12/07 06:58:46;;;;;;;37.85;25.05;;;1.50;99.90;;;;;;5009364;28;20760;-51
2021/12/07 07:01:15;;;;;;;38.97;26.20;;;1.50;99.90;;;;;;5010655;28;20224;-50
2021/12/07 07:03:43;;;;;;;36.97;25.80;;;1.50;99.90;;;;;;5014332;28;20553;-50
2021/12/07 07:06:13;;;;;;;38.63;25.75;;;1.50;99.90;;;;;;5013149;28;20223;-50
2021/12/07 07:08:40;;;;;;;45.15;25.35;;;1.80;99.90;;;;;;5013926;28;20280;-52
2021/12/07 07:11:07;;;;;;;42.28;25.50;;;;;;;;;;5014706;28;20676;-53
2021/12/07 07:13:34;;;;;;;44.53;26.17;;;1.70;99.90;;;;;;5013186;28;20802;-51
2021/12/07 07:16:01;;;;;;;46.15;27.48;;;1.70;99.90;;;;;;5013098;28;20237;-51
2021/12/07 07:18:28;;;;;;;44.30;27.38;;;1.70;99.90;;;;;;5012346;28;20316;-51
2021/12/07 07:20:55;;;;;;;42.60;27.75;;;1.70;99.90;;;;;;5014447;28;20236;-51
2021/12/07 07:23:24;;;;;;;46.85;29.65;;;1.60;99.90;;;;;;5014191;28;20623;-51
2021/12/07 07:25:55;;;;;;;43.67;27.48;;;;;;;;;;5014532;28;20196;-51
2021/12/07 07:28:22;;;;;;;42.03;26.27;;;1.80;99.90;;;;;;5013832;28;20616;-52
2021/12/07 07:30:50;;;;;;;40.88;27.00;;;;;;;;;;5012346;28;20702;-56
2021/12/07 07:33:17;;;;;;;42.95;27.33;;;2.00;99.90;;;;;;5014084;28;20410;-51
2021/12/07 07:35:44;;;;;;;41.17;26.27;;;;;;;;;;5014479;28;20200;-52
2021/12/07 07:38:11;;;;;;;39.65;26.38;;;2.20;99.90;;;;;;5013582;28;20213;-51
2021/12/07 07:40:43;;;;;;;41.78;26.35;;;2.20;99.90;;;;;;5012694;28;20678;-51
2021/12/07 07:43:10;;;;;;;40.85;26.38;;;2.00;99.90;;;;;;5013812;28;20208;-52
2021/12/07 07:45:57;;;;;;;37.72;24.85;;;;;;;;;;5013799;28;20674;-54
2021/12/07 07:48:24;;;;;;;39.55;24.70;;;2.10;99.90;;;;;;5013170;28;20229;-52
2021/12/07 07:50:53;;;;;;;36.63;23.55;;;1.90;99.90;;;;;;5026149;23;20360;-49
2021/12/07 07:53:21;;;;;;;39.25;25.30;;;1.90;99.90;;;;;;5012324;28;20597;-49
2021/12/07 07:55:49;;;;;;;36.55;24.08;;;2.00;99.90;;;;;;5014308;28;20229;-48
2021/12/07 07:58:18;;;;;;;39.78;24.27;;;2.10;99.90;;;;;;5011598;28;20236;-49
2021/12/07 08:00:47;;;;;;;31.40;22.35;;;2.20;99.90;;;;;;5012294;28;20225;-49
2021/12/07 08:03:14;;;;;;;36.15;22.10;;;2.30;99.90;;;;;;5012513;28;20205;-50
2021/12/07 08:05:41;;;;;;;35.63;23.88;;;2.10;99.90;;;;;;5012678;28;20255;-50
2021/12/07 08:08:13;;;;;;;34.53;22.50;;;2.30;99.90;;;;;;5011625;28;20280;-50
2021/12/07 08:10:40;;;;;;;32.88;21.65;;;2.20;99.90;;;;;;5013479;28;20248;-49
2021/12/07 08:13:09;;;;;;;38.13;23.85;;;2.20;99.90;;;;;;5013090;28;20197;-49
2021/12/07 08:15:43;;;;;;;36.83;23.25;;;2.20;99.90;;;;;;5013031;28;20730;-50
2021/12/07 08:18:11;;;;;;;33.22;22.58;;;1.60;99.90;;;;;;5010914;28;20224;-50
2021/12/07 08:20:39;;;;;;;28.92;20.80;;;2.40;99.90;;;;;;5011834;28;20256;-49
2021/12/07 08:23:06;;;;;;;32.72;22.10;;;2.40;99.90;;;;;;5013291;28;20224;-48
2021/12/07 08:25:34;;;;;;;31.98;22.00;;;2.30;99.90;;;;;;5012082;28;20789;-50
2021/12/07 08:28:04;;;;;;;34.78;22.05;;;2.50;99.90;;;;;;5013023;28;20273;-50
2021/12/07 08:30:32;;;;;;;33.50;22.25;;;2.30;99.90;;;;;;5013432;28;20293;-49
2021/12/07 08:32:59;;;;;;;34.20;22.48;;;1.90;99.90;;;;;;5011622;28;20233;-50
2021/12/07 08:35:26;;;;;;;32.70;22.15;;;2.30;99.90;;;;;;5013494;28;20240;-49
2021/12/07 08:37:53;;;;;;;36.40;23.58;;;1.80;99.90;;;;;;5012464;28;20205;-49
2021/12/07 08:40:23;;;;;;;34.20;22.58;;;2.30;99.90;;;;;;5013046;28;20217;-50
2021/12/07 08:42:53;;;;;;;34.17;21.75;;;2.30;99.90;;;;;;5011116;28;20688;-49
2021/12/07 08:45:22;;;;;;;33.90;21.75;;;2.40;99.90;;;;;;5012097;28;20677;-49
2021/12/07 08:47:52;;;;;;;33.53;22.42;;;2.50;99.90;;;;;;5013164;28;20204;-49
2021/12/07 08:50:22;;;;;;;35.33;22.10;;;2.10;99.90;;;;;;5012975;28;20659;-51
2021/12/07 08:52:51;;;;;;;35.45;22.90;;;2.40;99.90;;;;;;5011299;28;20225;-49
2021/12/07 09:00:48;;;;;;;29.25;21.70;;;2.50;99.90;;;;;;5013362;28;20262;-49
2021/12/07 09:03:16;;;;;;;31.73;20.83;;;1.90;99.90;;;;;;5013114;28;20389;-48
2021/12/07 09:05:43;;;;;;;32.42;22.50;;;2.50;99.90;;;;;;5013057;28;20200;-48
2021/12/07 09:08:09;;;;;;;32.40;20.58;;;2.60;99.90;;;;;;5011139;28;20240;-49
2021/12/07 09:10:36;;;;;;;31.63;20.83;;;2.80;99.90;;;;;;5007474;28;20217;-49
2021/12/07 09:13:05;;;;;;;32.20;20.85;;;2.60;99.90;;;;;;5001509;28;20264;-50
2021/12/07 09:15:32;;;;;;;33.10;22.35;;;2.70;99.90;;;;;;5013076;28;20263;-49
2021/12/07 09:18:01;;;;;;;33.35;23.20;;;2.70;99.90;;;;;;5010533;28;20204;-48
2021/12/07 09:20:29;;;;;;;31.52;21.85;;;2.80;99.90;;;;;;5009804;28;20599;-48
2021/12/07 09:22:56;;;;;;;32.45;21.60;;;2.80;99.90;;;;;;5010400;28;20202;-49
2021/12/07 09:25:26;;;;;;;33.08;21.45;;;2.20;99.90;;;;;;5010671;28;20681;-50
2021/12/07 09:27:53;;;;;;;28.77;21.38;;;2.70;99.90;;;;;;5009577;28;20300;-48
2021/12/07 09:30:20;;;;;;;36.78;24.08;;;2.60;99.90;;;;;;5010066;28;20217;-49
2021/12/07 09:32:48;;;;;;;32.40;26.30;;;2.90;99.90;;;;;;5010197;28;20521;-49
2021/12/07 09:35:17;;;;;;;31.48;22.92;;;3.10;99.90;;;;;;5010949;28;20232;-49
2021/12/07 09:37:45;;;;;;;31.77;23.30;;;3.00;99.90;;;;;;5012394;28;20198;-49
2021/12/07 09:40:15;;;;;;;34.15;22.17;;;2.90;99.90;;;;;;5012031;28;20236;-49
2021/12/07 09:42:43;;;;;;;36.65;24.15;;;2.80;99.90;;;;;;5011979;28;20248;-50
2021/12/07 09:45:13;;;;;;;37.65;23.65;;;3.20;99.90;;;;;;5010533;28;20299;-49
2021/12/07 09:47:40;;;;;;;35.50;23.83;;;2.80;99.90;;;;;;5012055;28;20674;-49
2021/12/07 09:50:09;;;;;;;40.20;24.48;;;3.00;99.90;;;;;;5011763;28;20307;-49
2021/12/07 09:52:36;;;;;;;34.00;22.45;;;3.00;99.90;;;;;;5010899;28;20209;-48
2021/12/07 09:55:05;;;;;;;32.15;21.90;;;2.80;99.90;;;;;;5011068;28;20304;-49
2021/12/07 09:57:32;;;;;;;33.20;22.58;;;2.70;99.90;;;;;;5010637;28;20304;-49
2021/12/07 09:59:59;;;;;;;35.28;24.27;;;2.80;99.90;;;;;;5011785;28;20341;-50
2021/12/07 10:02:26;;;;;;;31.98;21.58;;;2.40;99.90;;;;;;5010365;28;20240;-50
2021/12/07 10:04:52;;;;;;;36.40;22.85;;;2.80;99.90;;;;;;5010838;28;20633;-50
2021/12/07 10:07:19;;;;;;;35.80;23.55;;;2.80;99.90;;;;;;5012236;28;20229;-50
2021/12/07 10:09:47;;;;;;;35.15;21.98;;;3.20;99.90;;;;;;5011387;28;20221;-49
2021/12/07 10:12:20;;;;;;;33.85;24.38;;;3.10;99.90;;;;;;5011886;28;20251;-49
2021/12/07 10:14:47;;;;;;;35.85;22.92;;;3.00;99.90;;;;;;5009998;28;20209;-49
2021/12/07 10:17:14;;;;;;;37.67;24.10;;;3.10;99.90;;;;;;5010504;28;20209;-49
2021/12/07 10:19:45;;;;;;;34.63;24.73;;;3.00;99.90;;;;;;5009161;28;20697;-49
2021/12/07 10:22:16;;;;;;;41.55;23.88;;;2.90;99.90;;;;;;5011882;28;20703;-51
2021/12/07 10:24:47;;;;;;;34.38;24.85;;;3.20;99.90;;;;;;5010011;28;20635;-49
2021/12/07 10:27:14;;;;;;;39.65;24.50;;;2.50;99.90;;;;;;5011661;28;20204;-50
2021/12/07 10:29:43;;;;;;;41.10;27.30;;;3.40;99.90;;;;;;5009305;28;20200;-50
2021/12/07 10:32:09;;;;;;;35.67;23.65;;;3.20;99.90;;;;;;5010661;28;20281;-49
2021/12/07 10:34:40;;;;;;;41.92;25.30;;;3.10;99.90;;;;;;5011108;28;20626;-52
2021/12/07 10:37:09;;;;;;;35.33;25.02;;;3.30;99.90;;;;;;5006725;28;20208;-50
2021/12/07 10:39:40;;;;;;;36.28;24.00;;;3.10;99.90;;;;;;4996580;28;20685;-50
2021/12/07 10:42:09;;;;;;;36.38;25.05;;;3.20;99.90;;;;;;4993962;28;20309;-50
2021/12/07 10:44:37;;;;;;;33.83;24.17;;;2.70;99.90;;;;;;4995776;28;20198;-49
2021/12/07 10:47:10;;;;;;;37.25;24.70;;;2.90;99.90;;;;;;4994274;28;20264;-50
2021/12/07 10:49:43;;;;;;;38.05;24.90;;;3.50;99.90;;;;;;5000235;28;20229;-52
2021/12/07 10:52:24;;;;;;;38.95;24.83;;;3.50;99.90;;;;;;5033447;28;20299;-53
2021/12/07 10:54:55;;;;;;;35.10;24.95;;;3.30;99.90;;;;;;5035338;28;20735;-52
2021/12/07 10:57:24;;;;;;;34.70;23.15;;;2.70;99.90;;;;;;5034327;28;20274;-51
2021/12/07 10:59:56;;;;;;;36.55;25.10;;;3.40;99.90;;;;;;5032292;28;20232;-52
2021/12/07 11:02:30;;;;;;;37.70;23.70;;;3.30;99.90;;;;;;5034611;28;20205;-51
2021/12/07 11:04:57;;;;;;;40.60;27.88;;;3.60;99.90;;;;;;5033570;28;20208;-52
2021/12/07 11:07:27;;;;;;;39.63;25.38;;;3.50;99.90;;;;;;5033140;28;20204;-52
2021/12/07 11:10:06;;;;;;;38.50;25.50;;;3.60;99.90;;;;;;5033122;28;20311;-52
2021/12/07 11:12:43;;;;;;;41.10;24.23;;;3.10;99.90;;;;;;5034714;28;20618;-51
2021/12/07 11:15:18;;;;;;;39.03;25.98;;;3.50;99.90;;;;;;5034281;28;20206;-52
2021/12/07 11:17:46;;;;;;;35.65;24.35;;;3.60;99.90;;;;;;5032568;28;20254;-51
2021/12/07 11:20:15;;;;;;;36.35;25.15;;;3.50;99.90;;;;;;4994608;28;20230;-52
2021/12/07 11:22:48;;;;;;;36.53;23.75;;;3.50;99.90;;;;;;4994593;28;20194;-51
2021/12/07 11:25:32;;;;;;;38.38;24.65;;;3.60;99.90;;;;;;4993671;28;20285;-50
2021/12/07 11:30:45;;;;;;;39.17;24.05;;;3.50;99.90;;;;;;4995144;28;20292;-52
2021/12/07 11:33:23;;;;;;;39.97;27.23;;;3.70;99.90;;;;;;4994221;28;20194;-52
2021/12/07 11:35:50;;;;;;;37.78;26.48;;;3.20;99.90;;;;;;4993324;28;20206;-53
2021/12/07 11:38:30;;;;;;;42.33;27.15;;;3.50;99.90;;;;;;4994464;28;20679;-51
2021/12/07 11:41:15;;;;;;;41.03;27.73;;;3.80;99.90;;;;;;4994037;28;20234;-51
2021/12/07 11:43:51;;;;;;;38.80;26.48;;;3.60;99.90;;;;;;4991185;28;20202;-51
2021/12/07 11:46:19;;;;;;;38.28;25.63;;;3.70;99.90;;;;;;4994164;28;20272;-51
2021/12/07 11:48:48;;;;;;;37.85;26.23;;;3.60;99.90;;;;;;4992163;28;20229;-52
2021/12/07 11:51:15;;;;;;;39.08;26.20;;;3.80;99.90;;;;;;5025121;28;20286;-51
2021/12/07 11:53:42;;;;;;;39.15;26.40;;;3.50;99.90;;;;;;5032958;28;20324;-50
2021/12/07 11:56:09;;;;;;;38.05;26.45;;;3.80;99.90;;;;;;5031845;28;20214;-51
2021/12/07 11:58:36;;;;;;;40.78;26.00;;;3.70;99.90;;;;;;5031251;28;20620;-51
2021/12/07 12:01:06;;;;;;;34.97;24.77;;;3.80;99.90;;;;;;5031852;28;20758;-51
2021/12/07 12:03:33;;;;;;;42.20;26.75;;;3.60;99.90;;;;;;5033023;28;20201;-50
2021/12/07 12:06:01;;;;;;;40.00;26.98;;;3.60;99.90;;;;;;5030764;28;20204;-51
2021/12/07 12:08:28;;;;;;;47.28;27.83;;;3.80;99.90;;;;;;5032458;28;20720;-50
2021/12/07 12:10:59;;;;;;;40.38;26.15;;;3.70;99.90;;;;;;5022093;28;20239;-51
2021/12/07 12:13:34;;;;;;;39.38;26.40;;;4.10;99.90;;;;;;5012318;28;20239;-52
2021/12/07 12:16:12;;;;;;;37.10;26.15;;;3.80;99.90;;;;;;5012456;28;20266;-51
2021/12/07 12:18:49;;;;;;;43.17;26.33;;;3.80;99.90;;;;;;5017444;28;20197;-51
2021/12/07 12:21:28;;;;;;;37.75;25.08;;;3.30;99.90;;;;;;5030980;28;20240;-50
2021/12/07 12:24:06;;;;;;;42.75;27.25;;;3.70;99.90;;;;;;5031156;28;20207;-51
2021/12/07 12:26:35;;;;;;;42.70;27.33;;;4.00;99.90;;;;;;5031496;28;20204;-51
2021/12/07 12:29:17;;;;;;;41.05;26.98;;;3.40;99.90;;;;;;5008702;28;20625;-51
2021/12/07 12:31:49;;;;;;;34.95;24.33;;;3.80;99.90;;;;;;5013137;28;20221;-50
2021/12/07 12:34:18;;;;;;;42.22;27.88;;;3.70;99.90;;;;;;5011561;28;20288;-51
2021/12/07 12:37:01;;;;;;;38.28;26.20;;;3.40;99.90;;;;;;5013047;28;20244;-50
2021/12/07 12:39:51;;;;;;;42.22;26.90;;;3.80;99.90;;;;;;5010758;28;20245;-52
2021/12/07 12:42:37;;;;;;;45.53;27.65;;;3.70;99.90;;;;;;5011175;28;20623;-52
2021/12/07 12:45:17;;;;;;;36.38;23.90;;;3.60;99.90;;;;;;5025397;28;20196;-50
2021/12/07 12:47:44;;;;;;;46.58;28.95;;;3.90;99.90;;;;;;5032426;28;20201;-51
2021/12/07 12:50:18;;;;;;;45.30;29.67;;;3.90;99.90;;;;;;5025049;28;20229;-50
2021/12/07 12:52:49;;;;;;;44.00;28.85;;;3.90;99.90;;;;;;5012353;28;20284;-50
2021/12/07 12:55:47;;;;;;;42.83;27.95;;;4.00;99.90;;;;;;5011496;28;20372;-52
2021/12/07 12:58:18;;;;;;;42.92;28.50;;;4.10;99.90;;;;;;5010659;28;20392;-51
2021/12/07 13:01:00;;;;;;;42.00;27.70;;;3.80;99.90;;;;;;5012144;28;20221;-49
2021/12/07 13:03:37;;;;;;;40.15;27.35;;;4.20;99.90;;;;;;5010901;28;20252;-50
2021/12/07 13:06:04;;;;;;;48.70;29.63;;;4.00;99.90;;;;;;5012129;28;20197;-48
2021/12/07 13:08:32;;;;;;;43.13;27.33;;;3.60;99.90;;;;;;5009809;28;20205;-50
2021/12/07 13:11:02;;;;;;;37.47;26.27;;;4.20;99.90;;;;;;5010009;28;20225;-51
2021/12/07 13:13:32;;;;;;;41.38;26.25;;;4.10;99.90;;;;;;5011529;28;20280;-51
2021/12/07 13:15:59;;;;;;;39.95;27.05;;;4.10;99.90;;;;;;5012162;28;20232;-50
2021/12/07 13:18:32;;;;;;;49.78;29.10;;;3.90;99.90;;;;;;5012295;28;20196;-51
2021/12/07 13:20:59;;;;;;;43.75;28.88;;;4.00;99.90;;;;;;5011643;28;20257;-51
2021/12/07 13:23:29;;;;;;;42.60;28.35;;;3.60;99.90;;;;;;5010440;28;20680;-51
2021/12/07 13:25:57;;;;;;;41.47;27.33;;;4.00;99.90;;;;;;5010640;28;20201;-50
2021/12/07 13:28:27;;;;;;;43.05;27.10;;;4.00;99.90;;;;;;5011697;28;20198;-51
2021/12/07 13:31:17;;;;;;;44.25;27.88;;;4.10;99.90;;;;;;5011071;28;20276;-50
2021/12/07 13:33:49;;;;;;;39.30;26.40;;;4.20;99.90;;;;;;5008233;28;20221;-51
2021/12/07 13:36:45;;;;;;;40.17;26.92;;;4.00;99.90;;;;;;5011821;28;20631;-51
2021/12/07 13:39:40;;;;;;;40.97;25.88;;;4.00;99.90;;;;;;5011232;28;20223;-51
2021/12/07 13:42:12;;;;;;;38.08;25.63;;;3.90;99.90;;;;;;5011476;28;20272;-54
2021/12/07 13:44:42;;;;;;;42.97;26.15;;;3.70;99.90;;;;;;5010374;28;20624;-53
2021/12/07 13:47:12;;;;;;;38.75;26.83;;;3.70;99.90;;;;;;5010060;28;20303;-53
2021/12/07 13:49:41;;;;;;;39.80;25.70;;;3.70;99.90;;;;;;5009343;28;20202;-53
2021/12/07 13:52:14;;;;;;;45.70;25.38;;;3.60;99.90;;;;;;5050182;23;20241;-52
2021/12/07 13:54:44;;;;;;;41.95;27.60;;;3.40;99.90;;;;;;5029101;28;20239;-51
2021/12/07 13:57:18;;;;;;;41.03;25.30;;;3.90;99.90;;;;;;5027844;28;20200;-51
2021/12/07 13:59:56;;;;;;;43.40;28.80;;;3.80;99.90;;;;;;5029155;28;20619;-52
2021/12/07 14:02:24;;;;;;;44.65;29.88;;;3.60;99.90;;;;;;5008974;28;20205;-52
2021/12/07 14:04:51;;;;;;;45.53;26.40;;;3.70;99.90;;;;;;5009864;28;20198;-52
2021/12/07 14:07:20;;;;;;;44.88;26.58;;;4.00;99.90;;;;;;5009192;28;20211;-51
2021/12/07 14:09:46;;;;;;;45.58;27.17;;;3.80;99.90;;;;;;5009483;28;20211;-51
2021/12/07 14:12:21;;;;;;;41.30;27.25;;;3.70;99.90;;;;;;5009581;28;20259;-51
2021/12/07 14:14:48;;;;;;;41.90;25.55;;;3.70;99.90;;;;;;5009758;28;20585;-51
2021/12/07 14:17:15;;;;;;;43.50;27.02;;;3.90;99.90;;;;;;5009430;28;20233;-52